Time;durP1;ratioP1;P1;durP2;ratioP2;P2;SDS_P1;SDS_P2;PMS_P1;PMS_P2;Temp;Humidity;BMP_temperature;BMP_pressure;BME280_temperature;BME280_humidity;BME280_pressure;Samples;Min_cycle;Max_cycle;Signal;HPM_P1;HPM_P2
2023/07/14 00:01:44;;;;;;;7.80;4.22;;;16.90;99.90;;;;;;5015782;28;20041;-52
2023/07/14 00:04:15;;;;;;;11.10;5.15;;;16.90;99.90;;;;;;5015449;28;20419;-54
2023/07/14 00:06:41;;;;;;;9.00;4.85;;;16.90;99.90;;;;;;5015432;28;20485;-52
2023/07/14 00:09:28;;;;;;;10.32;4.40;;;16.80;99.90;;;;;;5011596;28;20065;-54
2023/07/14 00:11:54;;;;;;;13.73;5.32;;;16.80;99.90;;;;;;5012282;28;20045;-54
2023/07/14 00:14:21;;;;;;;7.28;4.55;;;16.80;99.90;;;;;;5012272;28;20512;-51
2023/07/14 00:16:47;;;;;;;7.35;4.35;;;16.80;99.90;;;;;;4994475;28;20046;-51
2023/07/14 00:19:15;;;;;;;9.95;4.10;;;16.70;99.90;;;;;;5014880;28;20041;-52
2023/07/14 00:21:40;;;;;;;9.82;5.22;;;16.70;99.90;;;;;;4979731;28;20112;-52
2023/07/14 00:24:15;;;;;;;8.25;4.82;;;16.60;99.90;;;;;;5016303;28;20037;-51
2023/07/14 00:26:44;;;;;;;7.65;5.03;;;16.60;99.90;;;;;;5017074;28;20590;-53
2023/07/14 00:29:38;;;;;;;10.18;4.68;;;16.60;99.90;;;;;;5014897;28;20046;-55
2023/07/14 00:32:13;;;;;;;13.05;4.95;;;16.60;99.90;;;;;;4998853;28;20052;-53
2023/07/14 00:34:39;;;;;;;7.10;4.80;;;16.50;99.90;;;;;;5015790;28;20038;-54
2023/07/14 00:37:05;;;;;;;8.82;5.28;;;16.50;99.90;;;;;;5016188;28;20076;-51
2023/07/14 00:39:30;;;;;;;9.10;5.03;;;16.50;99.90;;;;;;5017545;28;20038;-53
2023/07/14 00:41:56;;;;;;;9.00;5.07;;;16.50;99.90;;;;;;4998815;28;20042;-54
2023/07/14 00:44:22;;;;;;;9.35;5.03;;;16.40;99.90;;;;;;5016078;28;20047;-54
2023/07/14 00:46:48;;;;;;;6.05;4.88;;;16.40;99.90;;;;;;5019953;28;20045;-52
2023/07/14 00:49:24;;;;;;;9.13;5.50;;;16.40;99.90;;;;;;5018198;28;20055;-53
2023/07/14 00:51:51;;;;;;;8.20;5.28;;;16.40;99.90;;;;;;5018192;28;20044;-54
2023/07/14 00:54:29;;;;;;;10.52;6.65;;;16.40;99.90;;;;;;5017615;28;20100;-51
2023/07/14 00:56:55;;;;;;;9.32;6.07;;;16.40;99.90;;;;;;4998484;28;20070;-52
2023/07/14 00:59:36;;;;;;;13.00;5.25;;;16.30;99.90;;;;;;5017120;28;20380;-55
2023/07/14 01:02:10;;;;;;;10.88;6.03;;;16.30;99.90;;;;;;5014259;28;20095;-54
2023/07/14 01:04:47;;;;;;;9.90;6.10;;;16.30;99.90;;;;;;5007229;28;20053;-51
2023/07/14 01:07:16;;;;;;;12.82;6.45;;;16.30;99.90;;;;;;5009632;28;20550;-51
2023/07/14 01:09:43;;;;;;;9.27;6.10;;;16.30;99.90;;;;;;5016162;28;20042;-54
2023/07/14 01:12:12;;;;;;;12.50;6.88;;;16.20;99.90;;;;;;5011533;28;20801;-53
2023/07/14 01:14:42;;;;;;;11.00;7.20;;;16.20;99.90;;;;;;4996661;28;20045;-53
2023/07/14 01:17:09;;;;;;;9.45;6.47;;;16.20;99.90;;;;;;5011209;28;20613;-55
2023/07/14 01:19:54;;;;;;;14.32;7.45;;;16.20;99.90;;;;;;5015535;28;20044;-53
2023/07/14 01:22:43;;;;;;;13.20;7.05;;;16.20;99.90;;;;;;5017409;28;20041;-54
2023/07/14 01:25:36;;;;;;;11.93;8.45;;;16.10;99.90;;;;;;5015973;28;20053;-50
2023/07/14 01:28:11;;;;;;;10.93;7.93;;;16.10;99.90;;;;;;5016703;28;20123;-53
2023/07/14 01:30:38;;;;;;;12.73;7.95;;;16.00;99.90;;;;;;5015851;28;20531;-50
2023/07/14 01:33:08;;;;;;;12.25;8.15;;;16.00;99.90;;;;;;5015307;28;20483;-54
2023/07/14 01:35:39;;;;;;;11.63;8.45;;;16.00;99.90;;;;;;5012923;28;20595;-54
2023/07/14 01:38:05;;;;;;;13.80;8.68;;;16.00;99.90;;;;;;5015191;28;20987;-55
2023/07/14 01:40:33;;;;;;;13.75;8.88;;;16.00;99.90;;;;;;5014131;28;20052;-55
2023/07/14 01:43:02;;;;;;;13.63;9.15;;;15.90;99.90;;;;;;5015565;28;20045;-51
2023/07/14 01:45:50;;;;;;;14.80;9.32;;;15.90;99.90;;;;;;5012444;28;20107;-50
2023/07/14 01:48:24;;;;;;;12.52;8.70;;;15.90;99.90;;;;;;4988984;28;20049;-53
2023/07/14 01:50:55;;;;;;;16.85;9.00;;;15.80;99.90;;;;;;5011894;28;20041;-51
2023/07/14 01:53:26;;;;;;;15.13;8.07;;;15.80;99.90;;;;;;5013977;28;20495;-53
2023/07/14 01:55:55;;;;;;;13.27;8.82;;;15.80;99.90;;;;;;5014867;28;20500;-52
2023/07/14 01:58:56;;;;;;;14.80;9.50;;;15.70;99.90;;;;;;5015098;28;20049;-53
2023/07/14 02:01:25;;;;;;;13.50;9.30;;;15.70;99.90;;;;;;5008402;28;20056;-54
2023/07/14 02:03:54;;;;;;;13.82;9.15;;;15.70;99.90;;;;;;5013457;28;20048;-51
2023/07/14 02:06:20;;;;;;;15.00;9.77;;;15.70;99.90;;;;;;5011171;28;20396;-51
2023/07/14 02:08:46;;;;;;;12.35;8.75;;;15.60;99.90;;;;;;5010296;28;20037;-50
2023/07/14 02:11:23;;;;;;;11.70;9.00;;;15.60;99.90;;;;;;5009948;28;20124;-53
2023/07/14 02:13:55;;;;;;;15.23;9.02;;;15.60;99.90;;;;;;4995071;28;20036;-53
2023/07/14 02:16:22;;;;;;;13.53;9.97;;;15.60;99.90;;;;;;5013949;28;20503;-51
2023/07/14 02:18:48;;;;;;;12.95;9.00;;;15.60;99.90;;;;;;4995214;28;20049;-54
2023/07/14 02:21:23;;;;;;;12.02;8.48;;;15.60;99.90;;;;;;5002056;28;20176;-51
2023/07/14 02:23:50;;;;;;;14.95;9.60;;;15.60;99.90;;;;;;5015653;28;20416;-54
2023/07/14 02:26:32;;;;;;;12.60;9.38;;;15.50;99.90;;;;;;5014667;28;20403;-52
2023/07/14 02:28:58;;;;;;;14.75;9.88;;;15.50;99.90;;;;;;5015116;28;20054;-53
2023/07/14 02:31:32;;;;;;;13.40;9.55;;;15.50;99.90;;;;;;5014836;28;20033;-52
2023/07/14 02:33:59;;;;;;;15.45;10.18;;;15.50;99.90;;;;;;5015727;28;20041;-52
2023/07/14 02:36:31;;;;;;;14.80;9.23;;;15.50;99.90;;;;;;5001268;28;20045;-53
2023/07/14 02:38:57;;;;;;;16.23;10.10;;;15.50;99.90;;;;;;5014101;28;20033;-53
2023/07/14 02:41:23;;;;;;;15.38;9.23;;;15.50;99.90;;;;;;5015484;28;20507;-54
2023/07/14 02:43:54;;;;;;;15.88;9.65;;;15.50;99.90;;;;;;5014289;28;20033;-51
2023/07/14 02:46:25;;;;;;;14.88;10.55;;;15.50;99.90;;;;;;5014849;28;20041;-54
2023/07/14 02:48:52;;;;;;;18.33;10.47;;;15.50;99.90;;;;;;5012482;28;20038;-52
2023/07/14 02:51:18;;;;;;;14.73;9.82;;;15.50;99.90;;;;;;5013035;28;20064;-53
2023/07/14 02:53:44;;;;;;;17.15;10.25;;;15.50;99.90;;;;;;4997250;28;20037;-52
2023/07/14 02:56:10;;;;;;;14.13;10.30;;;15.50;99.90;;;;;;5014332;28;20041;-53
2023/07/14 02:58:36;;;;;;;14.20;10.70;;;15.40;99.90;;;;;;5014459;28;20863;-55
2023/07/14 03:01:04;;;;;;;16.50;10.35;;;15.40;99.90;;;;;;5015873;28;20049;-54
2023/07/14 03:03:33;;;;;;;14.55;10.57;;;15.40;99.90;;;;;;5013587;28;20065;-53
2023/07/14 03:05:59;;;;;;;14.82;10.82;;;15.40;99.90;;;;;;4997215;28;20042;-52
2023/07/14 03:08:27;;;;;;;18.17;10.73;;;15.40;99.90;;;;;;5013866;28;20052;-52
2023/07/14 03:10:58;;;;;;;14.35;10.20;;;15.40;99.90;;;;;;5017463;28;20037;-51
2023/07/14 03:13:25;;;;;;;16.77;10.82;;;15.40;99.90;;;;;;5016713;28;20061;-51
2023/07/14 03:15:51;;;;;;;18.15;11.10;;;15.40;99.90;;;;;;5014146;28;20045;-53
2023/07/14 03:18:18;;;;;;;15.63;10.80;;;15.30;99.90;;;;;;5013018;28;20108;-53
2023/07/14 03:20:44;;;;;;;18.58;11.57;;;15.30;99.90;;;;;;5014075;28;20041;-53
2023/07/14 03:23:10;;;;;;;20.13;11.00;;;15.30;99.90;;;;;;5010753;28;20041;-53
2023/07/14 03:25:36;;;;;;;14.57;10.00;;;15.30;99.90;;;;;;5013170;28;20048;-51
2023/07/14 03:28:03;;;;;;;14.40;10.73;;;15.20;99.90;;;;;;5015424;28;20046;-54
2023/07/14 03:30:31;;;;;;;15.35;10.93;;;15.20;99.90;;;;;;5012797;28;20029;-51
2023/07/14 03:32:57;;;;;;;13.77;10.27;;;15.20;99.90;;;;;;5011166;28;20057;-53
2023/07/14 03:35:23;;;;;;;15.02;10.35;;;15.20;99.90;;;;;;5014957;28;20045;-50
2023/07/14 03:37:49;;;;;;;15.77;10.43;;;15.20;99.90;;;;;;5012699;28;20042;-54
2023/07/14 03:40:14;;;;;;;14.43;9.55;;;15.20;99.90;;;;;;5014265;28;20517;-55
2023/07/14 03:42:43;;;;;;;20.05;10.48;;;15.10;99.90;;;;;;5014877;28;20117;-53
2023/07/14 03:45:09;;;;;;;15.73;8.95;;;15.10;99.90;;;;;;5016956;28;20045;-52
2023/07/14 03:47:36;;;;;;;13.32;10.15;;;15.10;99.90;;;;;;5015991;28;20086;-53
2023/07/14 03:50:02;;;;;;;13.38;9.27;;;15.10;99.90;;;;;;5016668;28;20038;-52
2023/07/14 03:52:28;;;;;;;16.85;9.60;;;15.10;99.90;;;;;;4999852;28;20088;-52
2023/07/14 03:54:54;;;;;;;16.23;10.32;;;15.10;99.90;;;;;;5016990;28;20081;-54
2023/07/14 03:57:19;;;;;;;16.55;9.90;;;15.10;99.90;;;;;;5016938;28;20064;-54
2023/07/14 03:59:45;;;;;;;17.35;10.13;;;15.10;99.90;;;;;;5019520;28;20052;-54
2023/07/14 04:02:11;;;;;;;16.98;9.55;;;15.10;99.90;;;;;;5021454;28;20076;-51
2023/07/14 04:04:36;;;;;;;12.85;9.23;;;15.00;99.90;;;;;;5020494;28;20034;-52
2023/07/14 04:07:02;;;;;;;14.93;9.68;;;15.00;99.90;;;;;;5018336;28;20041;-51
2023/07/14 04:09:28;;;;;;;13.57;8.32;;;15.10;99.90;;;;;;5020308;28;20099;-52
2023/07/14 04:11:54;;;;;;;13.00;8.63;;;15.10;99.90;;;;;;4984496;28;20120;-54
2023/07/14 04:14:19;;;;;;;18.85;8.80;;;15.10;99.90;;;;;;5017312;28;20945;-54
2023/07/14 04:16:45;;;;;;;14.55;8.68;;;15.10;99.90;;;;;;5015119;28;20045;-53
2023/07/14 04:19:11;;;;;;;17.92;9.43;;;15.10;99.90;;;;;;5018438;28;20044;-51
2023/07/14 04:21:37;;;;;;;12.52;8.48;;;15.10;99.90;;;;;;5014991;28;20484;-54
2023/07/14 04:24:03;;;;;;;14.68;8.25;;;15.10;99.90;;;;;;5015421;28;20132;-54
2023/07/14 04:26:29;;;;;;;11.63;7.72;;;15.10;99.90;;;;;;5017677;28;20085;-54
2023/07/14 04:28:55;;;;;;;13.90;8.40;;;15.10;99.90;;;;;;5016764;28;20569;-55
2023/07/14 04:31:21;;;;;;;14.98;7.78;;;15.10;99.90;;;;;;5014631;28;20077;-54
2023/07/14 04:33:50;;;;;;;15.40;7.70;;;15.10;99.90;;;;;;4998355;28;20142;-53
2023/07/14 04:36:16;;;;;;;14.80;7.72;;;15.10;99.90;;;;;;5014452;28;20127;-54
2023/07/14 04:38:58;;;;;;;12.63;7.25;;;15.10;99.90;;;;;;5014912;28;21134;-54
2023/07/14 04:41:23;;;;;;;13.07;7.38;;;15.20;99.90;;;;;;4981863;28;20533;-51
2023/07/14 04:43:49;;;;;;;17.10;7.28;;;15.20;99.90;;;;;;5017413;28;20041;-55
2023/07/14 04:46:15;;;;;;;12.82;7.63;;;15.20;99.90;;;;;;5015475;28;20054;-51
2023/07/14 04:48:41;;;;;;;13.63;6.95;;;15.20;99.90;;;;;;5014936;28;20731;-52
2023/07/14 04:51:06;;;;;;;15.10;7.03;;;15.20;99.90;;;;;;5015061;28;20043;-53
2023/07/14 04:53:33;;;;;;;13.75;6.93;;;15.20;99.90;;;;;;4998366;28;20096;-51
2023/07/14 04:55:59;;;;;;;12.40;6.50;;;15.30;99.90;;;;;;5014703;28;20053;-54
2023/07/14 04:58:24;;;;;;;13.00;6.82;;;15.30;99.90;;;;;;5019101;28;20544;-54
2023/07/14 05:00:50;;;;;;;12.52;6.68;;;15.30;99.90;;;;;;5018643;28;20049;-54
2023/07/14 05:03:16;;;;;;;10.07;6.53;;;15.30;99.90;;;;;;4997868;28;20049;-52
2023/07/14 05:05:42;;;;;;;11.90;6.30;;;15.30;99.90;;;;;;5013486;28;20060;-54
2023/07/14 05:08:08;;;;;;;12.15;6.72;;;15.30;99.90;;;;;;5013402;28;20123;-53
2023/07/14 05:10:37;;;;;;;12.15;6.60;;;15.40;99.90;;;;;;5015207;28;20120;-54
2023/07/14 05:13:03;;;;;;;10.32;6.15;;;15.40;99.90;;;;;;4994455;28;20385;-53
2023/07/14 05:15:29;;;;;;;11.40;6.43;;;15.40;99.90;;;;;;5012540;28;20041;-53
2023/07/14 05:17:55;;;;;;;11.00;6.40;;;15.50;99.90;;;;;;5010850;28;20045;-54
2023/07/14 05:20:21;;;;;;;10.95;6.53;;;15.50;99.90;;;;;;5014948;28;20617;-51
2023/07/14 05:22:50;;;;;;;10.70;6.10;;;15.50;99.90;;;;;;5016732;28;20123;-54
2023/07/14 05:25:16;;;;;;;11.27;6.40;;;15.60;99.90;;;;;;5013503;28;20049;-52
2023/07/14 05:27:43;;;;;;;10.45;6.05;;;15.60;99.90;;;;;;5013885;28;20558;-55
2023/07/14 05:30:14;;;;;;;10.70;6.22;;;15.60;99.90;;;;;;5013458;28;20110;-54
2023/07/14 05:32:42;;;;;;;10.45;6.53;;;15.70;99.90;;;;;;4993444;28;20030;-55
2023/07/14 05:35:08;;;;;;;9.95;6.47;;;15.70;99.90;;;;;;5012341;28;20042;-54
2023/07/14 05:37:34;;;;;;;13.82;6.10;;;15.70;99.90;;;;;;5012316;28;20053;-52
2023/07/14 05:39:59;;;;;;;10.82;6.18;;;15.80;99.90;;;;;;4994078;28;20598;-54
2023/07/14 05:42:25;;;;;;;9.73;5.75;;;15.80;99.90;;;;;;5012120;28;20045;-53
2023/07/14 05:44:51;;;;;;;11.52;6.25;;;15.80;99.90;;;;;;5012854;28;20083;-54
2023/07/14 05:47:17;;;;;;;12.88;6.13;;;15.90;99.90;;;;;;4984722;28;20091;-55
2023/07/14 05:49:42;;;;;;;13.20;5.78;;;15.90;99.90;;;;;;5014103;28;20034;-53
2023/07/14 05:52:10;;;;;;;11.65;5.70;;;16.00;99.90;;;;;;4981481;28;20041;-53
2023/07/14 05:54:36;;;;;;;14.43;5.70;;;16.00;99.90;;;;;;5012127;28;20041;-55
2023/07/14 05:57:02;;;;;;;9.63;5.82;;;16.00;99.90;;;;;;5011567;28;20087;-53
2023/07/14 05:59:28;;;;;;;13.15;5.97;;;16.10;99.90;;;;;;5016042;28;20069;-54
2023/07/14 06:01:53;;;;;;;12.93;5.45;;;16.10;99.90;;;;;;5018788;28;20163;-54
2023/07/14 06:04:19;;;;;;;9.00;4.95;;;16.20;99.90;;;;;;5015748;28;20029;-54
2023/07/14 06:06:45;;;;;;;9.75;5.38;;;16.20;99.90;;;;;;4998838;28;20045;-52
2023/07/14 06:09:14;;;;;;;12.43;5.43;;;16.30;99.90;;;;;;5010389;28;20037;-54
2023/07/14 06:11:43;;;;;;;12.73;5.57;;;16.40;99.90;;;;;;5007310;28;20118;-54
2023/07/14 06:14:10;;;;;;;9.23;4.97;;;16.40;99.90;;;;;;5012612;28;20407;-55
2023/07/14 06:16:36;;;;;;;13.15;5.55;;;16.50;99.90;;;;;;5009098;28;20616;-55
2023/07/14 06:19:03;;;;;;;15.10;5.35;;;16.60;99.90;;;;;;5014418;28;20053;-54
2023/07/14 06:21:29;;;;;;;7.65;4.63;;;16.70;99.90;;;;;;5014455;28;20049;-55
2023/07/14 06:23:54;;;;;;;10.15;5.00;;;16.80;99.90;;;;;;5016596;28;20041;-55
2023/07/14 06:26:20;;;;;;;12.13;4.90;;;16.80;99.90;;;;;;4998063;28;20438;-53
2023/07/14 06:28:46;;;;;;;9.93;5.03;;;16.90;99.90;;;;;;5015676;28;20164;-54
2023/07/14 06:31:13;;;;;;;9.45;5.20;;;17.00;99.90;;;;;;5014837;28;20033;-52
2023/07/14 06:33:40;;;;;;;10.60;5.15;;;17.00;99.90;;;;;;5009395;28;20096;-54
2023/07/14 06:36:07;;;;;;;8.50;4.40;;;17.10;99.90;;;;;;5014450;28;20045;-52
2023/07/14 06:38:34;;;;;;;9.05;4.72;;;17.20;99.90;;;;;;5010268;28;20660;-53
2023/07/14 06:41:03;;;;;;;10.68;5.07;;;17.30;99.90;;;;;;5012591;28;20041;-55
2023/07/14 06:43:31;;;;;;;8.55;4.38;;;17.30;99.90;;;;;;4995870;28;20037;-55
2023/07/14 06:45:57;;;;;;;11.40;4.55;;;17.40;99.90;;;;;;5010167;28;20171;-53
2023/07/14 06:48:24;;;;;;;11.70;5.07;;;17.50;99.90;;;;;;4990421;28;20084;-55
2023/07/14 06:50:50;;;;;;;7.78;5.07;;;17.60;99.90;;;;;;5012527;28;20034;-52
2023/07/14 06:53:17;;;;;;;10.80;4.70;;;17.70;99.90;;;;;;5013294;28;20620;-54
2023/07/14 06:55:43;;;;;;;12.02;4.90;;;17.80;99.90;;;;;;5015009;28;20046;-54
2023/07/14 06:58:09;;;;;;;11.10;5.05;;;17.90;99.90;;;;;;5013517;28;20408;-55
2023/07/14 07:00:36;;;;;;;9.75;4.68;;;18.00;99.90;;;;;;5011796;28;20044;-54
2023/07/14 07:03:05;;;;;;;12.63;5.10;;;18.00;99.90;;;;;;5013498;28;20488;-55
2023/07/14 07:05:37;;;;;;;9.38;4.78;;;18.20;99.90;;;;;;4996231;28;20048;-53
2023/07/14 07:08:03;;;;;;;13.48;5.35;;;18.30;99.90;;;;;;5013241;28;20030;-54
2023/07/14 07:10:29;;;;;;;8.70;4.40;;;18.30;99.90;;;;;;5013554;28;20087;-54
2023/07/14 07:12:55;;;;;;;11.10;4.47;;;18.40;99.90;;;;;;5013962;28;20496;-54
2023/07/14 07:15:21;;;;;;;10.10;3.45;;;18.50;99.90;;;;;;5013176;28;20049;-55
2023/07/14 07:17:47;;;;;;;10.10;3.80;;;18.60;99.90;;;;;;5014953;28;20096;-52
2023/07/14 07:20:13;;;;;;;7.50;3.28;;;18.60;99.90;;;;;;4997968;28;20116;-53
2023/07/14 07:22:40;;;;;;;6.13;3.58;;;18.70;99.90;;;;;;5013163;28;20508;-53
2023/07/14 07:25:07;;;;;;;9.93;3.63;;;18.80;99.90;;;;;;5013377;28;20511;-54
2023/07/14 07:27:33;;;;;;;9.15;3.00;;;18.80;99.90;;;;;;5012769;28;20488;-55
2023/07/14 07:30:00;;;;;;;9.73;3.33;;;18.90;99.90;;;;;;5015282;28;20157;-50
2023/07/14 07:32:27;;;;;;;7.80;3.40;;;19.00;99.90;;;;;;5013893;28;20084;-55
2023/07/14 07:34:58;;;;;;;6.53;3.40;;;19.10;99.90;;;;;;5017123;28;20480;-55
2023/07/14 07:37:25;;;;;;;11.45;3.45;;;19.20;99.90;;;;;;5017318;28;20096;-55
2023/07/14 07:39:53;;;;;;;7.10;3.10;;;19.30;99.90;;;;;;4988811;28;20502;-54
2023/07/14 07:42:19;;;;;;;9.27;3.78;;;19.40;99.90;;;;;;5017141;28;20048;-55
2023/07/14 07:44:45;;;;;;;10.05;3.28;;;19.50;99.90;;;;;;5019572;28;20044;-56
2023/07/14 07:47:12;;;;;;;7.13;3.63;;;19.60;99.90;;;;;;5015417;28;20037;-56
2023/07/14 07:49:38;;;;;;;7.95;3.90;;;19.70;99.90;;;;;;5016487;28;20049;-54
2023/07/14 07:52:05;;;;;;;9.20;4.20;;;19.80;99.90;;;;;;5017889;28;20042;-55
2023/07/14 07:54:30;;;;;;;9.43;3.92;;;19.80;99.90;;;;;;4997517;28;20037;-54
2023/07/14 07:56:56;;;;;;;9.05;4.18;;;19.90;99.90;;;;;;5010081;28;20041;-55
2023/07/14 07:59:22;;;;;;;8.63;4.47;;;20.00;99.90;;;;;;5014687;28;20050;-53
2023/07/14 08:01:48;;;;;;;10.57;4.70;;;20.10;99.90;;;;;;5015042;28;20056;-55
2023/07/14 08:04:15;;;;;;;8.88;4.82;;;20.10;99.90;;;;;;5014103;28;20038;-55
2023/07/14 08:06:41;;;;;;;12.25;5.70;;;20.10;99.90;;;;;;4995396;28;20084;-53
2023/07/14 08:09:06;;;;;;;12.80;6.50;;;20.20;99.90;;;;;;5018680;28;20037;-55
2023/07/14 08:11:33;;;;;;;13.68;6.32;;;20.20;99.90;;;;;;5013419;28;20048;-54
2023/07/14 08:14:02;;;;;;;11.30;5.53;;;20.30;99.90;;;;;;5015833;28;20045;-54
2023/07/14 08:16:28;;;;;;;12.90;6.53;;;20.40;99.90;;;;;;5015795;28;20040;-55
2023/07/14 08:18:54;;;;;;;9.05;5.57;;;20.60;99.90;;;;;;5001145;28;20672;-54
2023/07/14 08:21:20;;;;;;;11.43;5.68;;;20.60;99.90;;;;;;5015435;28;20045;-55
2023/07/14 08:23:45;;;;;;;7.88;5.07;;;20.60;99.90;;;;;;5015900;28;20128;-54
2023/07/14 08:26:12;;;;;;;8.85;5.20;;;20.60;99.90;;;;;;4996855;28;20047;-54
2023/07/14 08:28:39;;;;;;;11.38;4.88;;;20.70;99.90;;;;;;5017650;28;20416;-55
2023/07/14 08:31:07;;;;;;;6.50;4.28;;;20.90;99.90;;;;;;5017900;28;20041;-54
2023/07/14 08:33:34;;;;;;;12.02;4.93;;;21.00;99.90;;;;;;5015503;28;20040;-54
2023/07/14 08:36:01;;;;;;;10.52;4.38;;;21.20;99.90;;;;;;5015658;28;20071;-55
2023/07/14 08:38:28;;;;;;;9.60;4.43;;;21.30;99.90;;;;;;5016267;28;20042;-55
2023/07/14 08:41:24;;;;;;;6.50;4.13;;;21.40;99.90;;;;;;5000210;28;20041;-55
2023/07/14 08:44:05;;;;;;;8.60;3.78;;;21.60;99.90;;;;;;5017041;28;20469;-55
2023/07/14 08:46:41;;;;;;;7.43;3.40;;;21.80;99.60;;;;;;5015272;28;20499;-54
2023/07/14 08:49:31;;;;;;;6.93;2.85;;;21.90;98.50;;;;;;5014071;28;20037;-54
2023/07/14 08:52:24;;;;;;;6.57;3.53;;;21.90;97.80;;;;;;5017238;28;20541;-55
2023/07/14 08:55:09;;;;;;;6.80;3.60;;;22.00;97.50;;;;;;5016122;28;20045;-55
2023/07/14 08:57:54;;;;;;;6.03;3.25;;;22.10;97.50;;;;;;5007752;28;20069;-54
2023/07/14 09:00:32;;;;;;;5.55;3.05;;;22.10;97.60;;;;;;5015247;28;20526;-54
2023/07/14 09:03:11;;;;;;;5.10;2.75;;;22.20;97.40;;;;;;5015980;28;20587;-54
2023/07/14 09:05:51;;;;;;;7.38;2.58;;;22.30;96.90;;;;;;5012873;28;20057;-55
2023/07/14 09:08:17;;;;;;;8.07;2.85;;;22.50;96.90;;;;;;5018718;28;20045;-53
2023/07/14 09:11:02;;;;;;;6.90;2.65;;;22.70;96.80;;;;;;4997389;28;20033;-54
2023/07/14 09:13:50;;;;;;;5.78;2.78;;;22.60;96.00;;;;;;5014287;28;20045;-53
2023/07/14 09:16:20;;;;;;;5.13;2.75;;;22.50;95.70;;;;;;5013648;28;20045;-54
2023/07/14 09:19:27;;;;;;;6.90;2.58;;;22.40;95.40;;;;;;5015937;28;20095;-55
2023/07/14 09:22:07;;;;;;;4.18;2.70;;;22.40;95.60;;;;;;5015580;28;20100;-55
2023/07/14 09:24:35;;;;;;;5.93;2.92;;;22.30;95.20;;;;;;5017634;28;20041;-55
2023/07/14 09:27:03;;;;;;;5.10;2.97;;;22.10;95.00;;;;;;5015154;28;20396;-56
2023/07/14 09:29:44;;;;;;;5.60;3.20;;;22.00;94.90;;;;;;5016023;28;20057;-55
2023/07/14 09:32:37;;;;;;;5.30;2.70;;;21.90;94.90;;;;;;4997804;28;20069;-54
2023/07/14 09:35:14;;;;;;;7.25;2.47;;;21.80;94.70;;;;;;5015062;28;20038;-54
2023/07/14 09:37:49;;;;;;;5.10;2.70;;;21.70;94.60;;;;;;5002900;28;20149;-56
2023/07/14 09:40:19;;;;;;;4.88;2.17;;;21.80;94.30;;;;;;5014621;28;20092;-55
2023/07/14 09:42:56;;;;;;;3.63;2.25;;;21.90;93.70;;;;;;5014892;28;20041;-55
2023/07/14 09:45:31;;;;;;;4.57;2.42;;;22.10;93.30;;;;;;5016237;28;20285;-54
2023/07/14 09:48:11;;;;;;;3.75;2.00;;;22.40;93.20;;;;;;5016610;28;20124;-55
2023/07/14 09:50:40;;;;;;;6.47;2.05;;;22.70;91.90;;;;;;5014924;28;20502;-55
2023/07/14 09:53:07;;;;;;;4.05;2.33;;;22.90;91.20;;;;;;5015248;28;20468;-56
2023/07/14 09:55:56;;;;;;;4.70;2.47;;;22.80;91.00;;;;;;5006311;28;20037;-56
2023/07/14 09:58:25;;;;;;;4.70;2.42;;;22.90;91.10;;;;;;5009025;28;20079;-55
2023/07/14 10:00:54;;;;;;;6.45;2.45;;;23.10;90.50;;;;;;5013392;28;20045;-55
2023/07/14 10:03:20;;;;;;;5.05;2.53;;;23.20;89.60;;;;;;5013235;28;20052;-56
2023/07/14 10:06:12;;;;;;;6.00;2.28;;;23.40;90.10;;;;;;4996019;28;20050;-53
2023/07/14 10:08:56;;;;;;;4.60;2.40;;;23.50;87.90;;;;;;5011756;28;20165;-56
2023/07/14 10:11:44;;;;;;;6.50;2.33;;;23.70;88.50;;;;;;4994257;28;20048;-55
2023/07/14 10:14:40;;;;;;;5.95;2.40;;;23.80;87.80;;;;;;5012683;28;20033;-56
2023/07/14 10:17:24;;;;;;;6.13;2.30;;;24.00;88.50;;;;;;5013382;28;20049;-56
2023/07/14 10:19:51;;;;;;;4.03;2.13;;;24.30;86.60;;;;;;5013807;28;20037;-55
2023/07/14 10:22:23;;;;;;;5.07;2.30;;;24.50;85.30;;;;;;5012930;28;20083;-55
2023/07/14 10:24:58;;;;;;;3.08;2.30;;;24.60;83.50;;;;;;5014911;28;20044;-52
2023/07/14 10:27:27;;;;;;;4.10;2.40;;;24.70;82.50;;;;;;5013555;28;20042;-56
2023/07/14 10:29:59;;;;;;;4.53;2.33;;;24.50;81.60;;;;;;5014101;28;20084;-55
2023/07/14 10:32:30;;;;;;;5.13;2.53;;;24.30;82.00;;;;;;5013939;28;20045;-55
2023/07/14 10:35:02;;;;;;;3.95;2.50;;;24.30;84.90;;;;;;4980240;28;20054;-55
2023/07/14 10:37:40;;;;;;;6.65;2.22;;;24.60;85.30;;;;;;5011427;28;20389;-55
2023/07/14 10:40:14;;;;;;;6.72;2.53;;;24.80;83.20;;;;;;5013324;28;20045;-56
2023/07/14 10:43:38;;;;;;;3.33;2.30;;;25.10;81.30;;;;;;5015434;28;20041;-57
2023/07/14 10:46:11;;;;;;;4.53;2.40;;;25.30;79.20;;;;;;4974050;28;20789;-56
2023/07/14 10:48:43;;;;;;;5.75;2.60;;;25.50;79.60;;;;;;4979955;28;20450;-55
2023/07/14 10:51:16;;;;;;;4.72;2.78;;;25.70;77.80;;;;;;4984620;28;20064;-56
2023/07/14 10:53:48;;;;;;;4.97;2.70;;;25.60;76.70;;;;;;5014806;28;21678;-56
2023/07/14 10:56:24;;;;;;;6.43;3.10;;;25.30;75.60;;;;;;5011395;28;20128;-55
2023/07/14 10:58:56;;;;;;;5.38;2.67;;;25.10;76.90;;;;;;4998148;28;20054;-54
2023/07/14 11:01:36;;;;;;;4.82;2.70;;;25.20;78.10;;;;;;5014449;28;20052;-55
2023/07/14 11:04:29;;;;;;;4.55;2.85;;;25.40;77.80;;;;;;4997892;28;20068;-55
2023/07/14 11:06:56;;;;;;;10.57;2.70;;;25.40;77.60;;;;;;4985085;28;20163;-54
2023/07/14 11:09:22;;;;;;;4.72;2.63;;;25.20;77.60;;;;;;5017196;28;20056;-54
2023/07/14 11:11:59;;;;;;;9.73;2.90;;;25.30;77.50;;;;;;5014412;28;20041;-55
2023/07/14 11:14:40;;;;;;;5.03;2.80;;;25.50;77.30;;;;;;5013467;28;20049;-53
2023/07/14 11:17:26;;;;;;;9.00;2.65;;;25.80;76.00;;;;;;5007930;28;20049;-55
2023/07/14 11:20:24;;;;;;;5.20;2.78;;;26.10;75.30;;;;;;5015346;28;20164;-55
2023/07/14 11:23:36;;;;;;;5.38;2.70;;;26.00;74.00;;;;;;5012748;28;20034;-55
2023/07/14 11:26:18;;;;;;;3.70;2.55;;;25.90;74.30;;;;;;4999058;28;20041;-54
2023/07/14 11:29:04;;;;;;;4.95;2.70;;;25.70;73.10;;;;;;5012047;28;20085;-53
2023/07/14 11:31:33;;;;;;;4.97;2.70;;;25.40;72.50;;;;;;5014201;28;20090;-54
2023/07/14 11:34:38;;;;;;;6.20;2.75;;;25.50;73.00;;;;;;4994490;28;20037;-55
2023/07/14 11:37:35;;;;;;;6.18;2.90;;;25.50;72.30;;;;;;4998184;28;20440;-55
2023/07/14 11:40:05;;;;;;;6.63;2.80;;;25.60;72.50;;;;;;5012419;28;20044;-54
2023/07/14 11:42:33;;;;;;;3.88;2.20;;;25.80;72.30;;;;;;5016259;28;20399;-56
2023/07/14 11:45:05;;;;;;;5.50;2.78;;;25.70;72.80;;;;;;5015812;28;20180;-55
2023/07/14 11:47:38;;;;;;;4.75;2.67;;;25.60;73.00;;;;;;5014472;28;20373;-56
2023/07/14 11:50:16;;;;;;;4.35;2.58;;;25.40;72.50;;;;;;5017011;28;20042;-54
2023/07/14 11:52:56;;;;;;;5.18;2.75;;;25.40;72.50;;;;;;5014802;28;20548;-55
2023/07/14 11:55:24;;;;;;;4.38;2.30;;;25.60;72.50;;;;;;4996543;28;20041;-56
2023/07/14 11:58:10;;;;;;;6.10;2.70;;;25.60;73.20;;;;;;5012080;28;20045;-55
2023/07/14 12:00:47;;;;;;;5.13;2.95;;;25.60;73.10;;;;;;4995511;28;20049;-55
2023/07/14 12:03:32;;;;;;;4.95;3.05;;;25.80;72.60;;;;;;4993893;28;20184;-55
2023/07/14 12:06:16;;;;;;;5.10;2.50;;;25.80;70.20;;;;;;5012787;28;20050;-55
2023/07/14 12:08:42;;;;;;;5.57;2.60;;;25.60;69.60;;;;;;4978948;28;20045;-56
2023/07/14 12:11:28;;;;;;;3.75;2.53;;;25.30;69.40;;;;;;5007617;28;20401;-53
2023/07/14 12:13:57;;;;;;;4.05;2.50;;;25.20;70.20;;;;;;5013332;28;20156;-56
2023/07/14 12:16:28;;;;;;;4.00;2.60;;;25.20;70.90;;;;;;5011334;28;20721;-55
2023/07/14 12:18:56;;;;;;;4.80;2.83;;;25.20;70.50;;;;;;5008752;28;20037;-55
2023/07/14 12:21:33;;;;;;;4.50;2.60;;;25.30;71.70;;;;;;5014933;28;20495;-55
2023/07/14 12:24:19;;;;;;;3.05;2.35;;;25.50;71.40;;;;;;4998925;28;20535;-55
2023/07/14 12:26:52;;;;;;;5.03;2.92;;;25.70;71.30;;;;;;5004891;28;20046;-54
2023/07/14 12:29:20;;;;;;;4.40;2.65;;;26.20;71.60;;;;;;5017416;28;20050;-56
2023/07/14 12:31:54;;;;;;;6.63;3.10;;;26.20;68.90;;;;;;5011645;28;20053;-55
2023/07/14 12:34:23;;;;;;;6.97;2.95;;;26.10;68.40;;;;;;5011529;28;20041;-56
2023/07/14 12:36:49;;;;;;;5.38;2.92;;;25.80;68.40;;;;;;5012876;28;20033;-55
2023/07/14 12:39:16;;;;;;;8.52;3.60;;;25.60;68.90;;;;;;5014497;28;20045;-56
2023/07/14 12:41:53;;;;;;;5.65;2.90;;;25.40;69.90;;;;;;5016375;28;20495;-55
2023/07/14 12:44:32;;;;;;;7.68;3.00;;;25.20;69.90;;;;;;5000347;28;20081;-56
2023/07/14 12:47:00;;;;;;;10.15;3.08;;;25.10;70.50;;;;;;5006881;28;20475;-53
2023/07/14 12:49:37;;;;;;;4.75;2.83;;;25.00;70.40;;;;;;5009496;28;20049;-55
2023/07/14 12:52:27;;;;;;;5.25;2.63;;;24.90;70.90;;;;;;4997573;28;20033;-55
2023/07/14 12:55:00;;;;;;;6.40;3.45;;;24.80;71.40;;;;;;5015383;28;20043;-56
2023/07/14 12:57:30;;;;;;;6.32;3.03;;;24.70;71.80;;;;;;5019154;28;20061;-54
2023/07/14 12:59:56;;;;;;;5.10;2.97;;;24.70;72.50;;;;;;5017846;28;20050;-56
2023/07/14 13:02:24;;;;;;;4.45;2.80;;;24.80;71.90;;;;;;5013146;28;20100;-56